• Join FlightAware (Why Join?)
  • Login
  • US Flag 
08:03PM EDT


 

Airport Tracker/Info


-or-


 

Live Flight TrackerFlight Track Log ✈ GLA38K ✈ 08-May-2013 ✈ KDIK - KISN

Flight Track Log - Related Links

Times and Time Zones

All times are in EDT time to prevent confusion due to time zone crossing. See the GLA38K flight status page for this flight to view local times or setup timezone preferences in your user account.

Time Position Orientation Groundspeed Altitude Reporting Facility
EDT Latitude Longitude Course Direction KTS MPH feet Rate Location/Type
12:16AM 47.0736 -102.9635 333° Northwest  Level FlightAware Approximate
12:17AM 47.1305 -103.0003 339° North  Level FlightAware Approximate
12:17AM 46.8669 -102.7883 329° Northwest 216 249 7,000  Level Minneapolis Center
12:18AM 47.1889 -103.0326 339° North  Level FlightAware Approximate
12:18AM 46.9206 -102.8289 333° Northwest 217 250 8,900  Level Minneapolis Center
12:19AM 47.2472 -103.0651 339° North  Level FlightAware Approximate
12:19AM 46.9858 -102.8658 339° North 213 245 11,200  Level Minneapolis Center
12:20AM 47.3041 -103.1027 336° Northwest  Level FlightAware Approximate
12:20AM 47.0403 -102.8967 339° North 210 242 12,000  Level Minneapolis Center
12:21AM 47.3609 -103.1406 336° Northwest  Level FlightAware Approximate
12:21AM 47.0981 -102.9297 339° North 215 247 12,000  Level Minneapolis Center
12:22AM 47.1583 -102.9683 336° Northwest 226 260 12,000  Level Minneapolis Center
12:23AM 47.2208 -103.0075 337° Northwest 235 270 12,000  Level Minneapolis Center
12:24AM 47.2828 -103.0469 337° Northwest 240 276 12,000  Level Minneapolis Center
12:25AM 47.3453 -103.0867 337° Northwest 243 280 12,000  Level Minneapolis Center
12:26AM 47.3956 -103.1178 337° Northwest 244 281 12,000  Level Minneapolis Center
12:27AM 47.4683 -103.1647 336° Northwest 244 281 12,000  Level Salt Lake Center
12:28AM 47.5300 -103.2050 336° Northwest 244 281 12,000  Level Salt Lake Center
12:29AM 47.5917 -103.2492 334° Northwest 245 282 12,000  Level Salt Lake Center
12:30AM 47.6664 -103.3014 335° Northwest 248 285 12,000  Level Salt Lake Center
12:31AM 47.7267 -103.3494 332° Northwest 248 285 12,000 -420 Level Salt Lake Center
12:32AM 47.7878 -103.3986 332° Northwest 250 288 11,200 -1,140 Descending Salt Lake Center
12:33AM 47.8497 -103.4469 332° Northwest 252 290 9,800 -1,500 Descending Salt Lake Center
12:34AM 47.9094 -103.4964 331° Northwest 251 289 8,200 -1,620 Descending Salt Lake Center